Time;durP1;ratioP1;P1;durP2;ratioP2;P2;SDS_P1;SDS_P2;PMS_P1;PMS_P2;Temp;Humidity;BMP_temperature;BMP_pressure;BME280_temperature;BME280_humidity;BME280_pressure;Samples;Min_cycle;Max_cycle;Signal;HPM_P1;HPM_P2
2022/03/30 00:01:07;;;;;;;33.85;14.50;;;;;;;1.10;100.00;99365.91;5075865;28;20023;-84
2022/03/30 00:03:32;;;;;;;28.15;14.85;;;;;;;1.00;100.00;99359.84;5077599;28;20020;-84
2022/03/30 00:05:58;;;;;;;31.50;14.43;;;;;;;0.92;100.00;99359.88;5076988;28;20040;-85
2022/03/30 00:08:23;;;;;;;29.88;13.43;;;;;;;0.89;100.00;99358.13;5077943;28;20027;-85
2022/03/30 00:10:48;;;;;;;31.63;14.73;;;;;;;0.85;100.00;99358.16;5080081;28;20088;-84
2022/03/30 00:13:15;;;;;;;33.85;14.50;;;;;;;0.87;100.00;99359.03;5080449;28;20098;-84
2022/03/30 00:15:40;;;;;;;30.98;14.05;;;;;;;0.88;100.00;99352.88;5080098;28;20374;-85
2022/03/30 00:18:05;;;;;;;32.92;14.82;;;;;;;0.83;100.00;99350.28;5080168;28;20028;-84
2022/03/30 00:20:30;;;;;;;29.08;14.23;;;;;;;0.78;100.00;99359.94;5082075;28;20032;-85
2022/03/30 00:22:56;;;;;;;32.90;14.38;;;;;;;0.72;100.00;99360.81;5082112;28;20066;-86
2022/03/30 00:25:21;;;;;;;32.78;14.68;;;;;;;0.72;100.00;99355.56;5083412;28;20032;-85
2022/03/30 00:27:47;;;;;;;31.17;13.77;;;;;;;0.80;100.00;99355.53;5082095;28;20056;-86
2022/03/30 00:30:15;;;;;;;35.03;15.25;;;;;;;0.70;100.00;99346.81;5081862;28;20025;-85
2022/03/30 00:32:41;;;;;;;33.78;14.25;;;;;;;0.72;100.00;99350.31;5084421;28;20107;-86
2022/03/30 00:35:07;;;;;;;35.13;13.32;;;;;;;0.74;100.00;99347.69;5076402;28;20055;-83
2022/03/30 00:37:34;;;;;;;32.67;13.30;;;;;;;0.76;100.00;99344.19;5076139;28;20028;-82
2022/03/30 00:39:59;;;;;;;28.77;13.73;;;;;;;0.65;100.00;99344.22;5077441;28;20017;-85
2022/03/30 00:42:24;;;;;;;33.67;14.20;;;;;;;0.59;100.00;99338.13;5076781;28;20031;-84
2022/03/30 00:44:51;;;;;;;33.65;13.02;;;;;;;0.58;100.00;99345.13;5078957;28;20099;-84
2022/03/30 00:47:21;;;;;;;28.55;13.73;;;;;;;0.64;100.00;99342.50;5078841;28;20021;-84
2022/03/30 00:49:47;;;;;;;28.48;12.82;;;;;;;0.83;100.00;99342.38;5078413;28;20031;-85
2022/03/30 00:52:13;;;;;;;32.72;13.10;;;;;;;0.91;100.00;99338.84;5081046;28;20111;-85
2022/03/30 00:54:40;;;;;;;27.40;13.57;;;;;;;0.96;100.00;99327.41;5079420;28;20032;-84
2022/03/30 00:57:09;;;;;;;30.45;12.65;;;;;;;1.03;100.00;99335.28;5083523;28;20539;-85
2022/03/30 00:59:34;;;;;;;25.33;10.73;;;;;;;1.07;100.00;99331.75;5083969;28;20025;-84
2022/03/30 01:02:00;;;;;;;27.45;12.05;;;;;;;1.11;100.00;99333.44;5081025;28;20088;-85
2022/03/30 01:04:26;;;;;;;25.88;11.75;;;;;;;1.09;100.00;99324.72;5083791;28;20025;-85
2022/03/30 01:06:52;;;;;;;27.77;11.85;;;;;;;1.07;100.00;99319.47;5083952;28;20470;-85
2022/03/30 01:09:17;;;;;;;27.17;12.00;;;;;;;1.06;100.00;99325.59;5082402;28;20082;-85
2022/03/30 01:11:43;;;;;;;26.88;11.80;;;;;;;1.10;100.00;99315.94;5074781;28;20024;-83
2022/03/30 01:14:09;;;;;;;28.23;12.85;;;;;;;1.08;100.00;99309.84;5076088;28;20396;-84
2022/03/30 01:16:35;;;;;;;27.40;11.77;;;;;;;1.07;100.00;99308.94;5076005;28;20028;-84
2022/03/30 01:19:06;;;;;;;26.40;12.52;;;;;;;1.06;100.00;99303.69;5074213;28;20013;-85
2022/03/30 01:21:31;;;;;;;25.35;13.48;;;;;;;1.06;100.00;99298.44;5073344;28;20031;-85
2022/03/30 01:23:57;;;;;;;28.70;12.57;;;;;;;1.04;100.00;99301.06;5073184;28;20024;-85
2022/03/30 01:26:23;;;;;;;24.83;12.27;;;;;;;1.04;100.00;99287.94;5073272;28;20470;-85
2022/03/30 01:28:49;;;;;;;25.80;11.18;;;;;;;1.05;100.00;99294.06;5073639;28;20546;-84
2022/03/30 01:33:58;;;;;;;28.70;12.80;;;;;;;0.98;100.00;99285.38;5074943;28;20401;-84
2022/03/30 01:36:25;;;;;;;28.80;12.85;;;;;;;0.93;100.00;99280.09;5074824;28;20025;-85
2022/03/30 01:38:51;;;;;;;28.23;12.43;;;;;;;0.95;100.00;99278.38;5082041;28;20016;-85
2022/03/30 01:41:16;;;;;;;29.98;13.40;;;;;;;0.95;100.00;99272.22;5073323;28;20030;-85
2022/03/30 01:43:41;;;;;;;27.15;12.77;;;;;;;0.85;100.00;99266.16;5073364;28;20017;-84
2022/03/30 01:46:07;;;;;;;29.30;13.38;;;;;;;0.89;100.00;99273.13;5073862;28;20046;-84
2022/03/30 01:48:32;;;;;;;34.80;12.93;;;;;;;0.89;100.00;99268.75;5074181;28;20029;-84
2022/03/30 01:50:59;;;;;;;26.75;13.20;;;;;;;0.91;100.00;99267.88;5074601;28;20029;-84
2022/03/30 01:53:25;;;;;;;26.90;12.98;;;;;;;0.93;100.00;99259.09;5074835;28;20024;-84
2022/03/30 01:55:50;;;;;;;28.30;13.70;;;;;;;0.89;100.00;99262.63;5073177;28;20054;-84
2022/03/30 01:58:16;;;;;;;35.10;14.30;;;;;;;0.92;100.00;99249.47;5073418;28;20021;-84
2022/03/30 02:00:41;;;;;;;25.42;12.23;;;;;;;0.97;100.00;99254.69;5075425;28;20040;-84
2022/03/30 02:03:07;;;;;;;27.33;12.82;;;;;;;0.97;100.00;99255.56;5074858;28;20051;-84
2022/03/30 02:05:33;;;;;;;32.30;13.30;;;;;;;0.97;100.00;99254.69;5073739;28;20422;-84
2022/03/30 02:07:58;;;;;;;32.33;13.32;;;;;;;0.96;100.00;99243.28;5075068;28;20063;-84
2022/03/30 02:10:23;;;;;;;28.35;13.55;;;;;;;0.99;100.00;99247.66;5074126;28;20028;-85
2022/03/30 02:12:49;;;;;;;31.48;12.80;;;;;;;1.06;100.00;99241.47;5077178;28;20028;-84
2022/03/30 02:15:14;;;;;;;25.75;12.80;;;;;;;1.07;100.00;99237.97;5079397;28;20021;-84
2022/03/30 02:17:40;;;;;;;26.30;12.35;;;;;;;0.99;100.00;99238.03;5078360;28;20103;-83
2022/03/30 02:20:07;;;;;;;27.65;13.70;;;;;;;0.93;100.00;99235.44;5077554;28;20031;-84
2022/03/30 02:22:32;;;;;;;30.65;13.95;;;;;;;0.92;100.00;99230.19;5077423;28;20020;-84
2022/03/30 02:24:58;;;;;;;29.95;13.35;;;;;;;0.88;100.00;99229.31;5078632;28;20089;-84
2022/03/30 02:27:23;;;;;;;26.17;12.93;;;;;;;0.96;100.00;99222.25;5078561;28;20035;-85
2022/03/30 02:29:51;;;;;;;31.52;14.05;;;;;;;0.96;100.00;99218.75;5079014;28;20474;-84
2022/03/30 02:32:17;;;;;;;28.52;12.60;;;;;;;0.94;100.00;99213.53;5079006;28;20027;-84
2022/03/30 02:34:44;;;;;;;31.20;12.75;;;;;;;0.95;100.00;99215.28;5077883;28;20021;-83
2022/03/30 02:37:11;;;;;;;27.85;12.70;;;;;;;0.92;100.00;99210.03;5078896;28;20043;-84
2022/03/30 02:39:37;;;;;;;27.20;12.88;;;;;;;0.96;100.00;99210.88;5079227;28;20038;-84
2022/03/30 02:42:03;;;;;;;26.20;13.68;;;;;;;0.97;100.00;99208.25;5079531;28;20028;-84
2022/03/30 02:44:28;;;;;;;39.00;12.60;;;;;;;0.81;100.00;99202.22;5078038;28;20017;-85
2022/03/30 02:46:54;;;;;;;30.83;12.50;;;;;;;0.65;100.00;99201.47;5079123;28;20469;-84
2022/03/30 02:49:19;;;;;;;27.98;12.75;;;;;;;0.66;100.00;99198.84;5079194;28;20039;-83
2022/03/30 02:51:45;;;;;;;30.95;13.27;;;;;;;0.74;100.00;99196.16;5089367;22;20131;-72
2022/03/30 02:54:10;;;;;;;30.02;12.23;;;;;;;0.68;100.00;99192.69;5075103;28;20028;-72
2022/03/30 02:56:35;;;;;;;32.80;12.98;;;;;;;0.50;100.00;99197.19;5075099;28;20025;-72
2022/03/30 02:59:01;;;;;;;30.88;13.23;;;;;;;0.19;100.00;99198.22;5075060;28;20023;-72
2022/03/30 03:01:26;;;;;;;32.22;13.57;;;;;;;0.02;100.00;99196.56;5074938;28;20032;-72
2022/03/30 03:03:51;;;;;;;35.72;13.77;;;;;;;-0.09;100.00;99198.34;5074854;28;20116;-72
2022/03/30 03:06:17;;;;;;;31.40;14.05;;;;;;;0.08;100.00;99186.03;5075677;28;20126;-73
2022/03/30 03:08:42;;;;;;;30.38;13.70;;;;;;;0.05;100.00;99188.66;5074888;28;20530;-72
2022/03/30 03:11:08;;;;;;;34.65;15.27;;;;;;;-0.13;100.00;99193.09;5074813;28;20020;-72
2022/03/30 03:13:33;;;;;;;35.00;14.25;;;;;;;-0.25;100.00;99182.66;5074982;28;20046;-72
2022/03/30 03:15:59;;;;;;;37.50;14.68;;;;;;;-0.32;100.00;99183.56;5074665;28;20052;-71
2022/03/30 03:18:24;;;;;;;35.00;14.23;;;;;;;-0.30;100.00;99189.66;5074961;28;20024;-72
2022/03/30 03:20:50;;;;;;;31.92;12.90;;;;;;;-0.28;100.00;99182.66;5074967;28;20021;-72
2022/03/30 03:23:16;;;;;;;33.30;12.82;;;;;;;-0.29;100.00;99180.94;5074724;28;20024;-72
2022/03/30 03:25:42;;;;;;;38.70;13.15;;;;;;;-0.24;100.00;99184.41;5074482;28;20473;-72
2022/03/30 03:28:10;;;;;;;32.97;12.60;;;;;;;-0.14;100.00;99180.88;5074415;28;20028;-72
2022/03/30 03:30:37;;;;;;;31.27;12.27;;;;;;;-0.02;100.00;99179.06;5074415;28;20516;-72
2022/03/30 03:33:04;;;;;;;28.88;12.38;;;;;;;0.02;100.00;99180.81;5074185;28;20059;-71
2022/03/30 03:35:30;;;;;;;34.47;13.35;;;;;;;0.05;100.00;99174.69;5072984;28;20024;-72
2022/03/30 03:37:55;;;;;;;26.77;11.40;;;;;;;0.15;100.00;99172.88;5074269;28;20025;-72
2022/03/30 03:40:21;;;;;;;30.75;11.98;;;;;;;0.06;100.00;99177.28;5074254;28;20017;-72
2022/03/30 03:42:47;;;;;;;33.25;13.55;;;;;;;0.00;100.00;99174.72;5074162;28;20127;-72
2022/03/30 03:45:12;;;;;;;33.95;12.25;;;;;;;-0.04;100.00;99175.59;5072263;28;20467;-72
2022/03/30 03:47:38;;;;;;;26.58;11.43;;;;;;;-0.02;100.00;99173.81;5074021;28;20023;-71
2022/03/30 03:50:04;;;;;;;25.83;11.20;;;;;;;0.03;100.00;99172.03;5073995;28;20445;-71
2022/03/30 03:52:31;;;;;;;28.20;11.77;;;;;;;0.12;100.00;99176.38;5073783;28;20028;-71
2022/03/30 03:54:56;;;;;;;29.88;11.38;;;;;;;0.20;100.00;99168.47;5073800;28;20020;-72
2022/03/30 03:57:21;;;;;;;23.98;10.88;;;;;;;0.24;100.00;99169.31;5072580;28;20043;-72
2022/03/30 03:59:47;;;;;;;24.98;10.45;;;;;;;0.26;100.00;99167.56;5073879;28;20024;-72
2022/03/30 04:02:12;;;;;;;26.13;10.57;;;;;;;0.16;100.00;99170.22;5073760;28;20061;-71
2022/03/30 04:04:37;;;;;;;22.75;10.25;;;;;;;0.01;100.00;99165.06;5072469;28;20070;-72
2022/03/30 04:07:03;;;;;;;22.10;10.02;;;;;;;0.01;100.00;99162.44;5073800;28;20166;-72
2022/03/30 04:09:29;;;;;;;23.90;10.18;;;;;;;0.13;100.00;99161.53;5072507;28;20071;-72
2022/03/30 04:11:54;;;;;;;29.40;12.10;;;;;;;0.17;100.00;99160.59;5073626;28;20489;-72
2022/03/30 04:14:19;;;;;;;24.02;10.77;;;;;;;0.12;100.00;99158.00;5074018;28;20016;-73
2022/03/30 04:16:46;;;;;;;25.55;11.20;;;;;;;0.20;100.00;99152.72;5073694;28;20056;-72
2022/03/30 04:19:11;;;;;;;25.30;10.27;;;;;;;0.22;100.00;99150.94;5073822;28;20044;-72
2022/03/30 04:21:36;;;;;;;22.27;9.65;;;;;;;0.22;100.00;99153.56;5073423;28;20039;-72
2022/03/30 04:24:02;;;;;;;27.85;10.50;;;;;;;0.21;100.00;99154.44;5073359;28;20028;-72
2022/03/30 04:26:27;;;;;;;25.23;9.98;;;;;;;0.25;100.00;99147.44;5073424;28;20389;-72
2022/03/30 04:28:53;;;;;;;26.67;9.65;;;;;;;0.25;100.00;99140.44;5073563;28;20028;-72
2022/03/30 04:31:18;;;;;;;24.13;10.05;;;;;;;0.27;100.00;99133.41;5073899;28;20032;-73
2022/03/30 04:33:43;;;;;;;23.58;10.13;;;;;;;0.28;100.00;99135.19;5073313;28;20503;-72
2022/03/30 04:36:09;;;;;;;25.88;9.45;;;;;;;0.32;100.00;99131.63;5073085;28;20510;-72
2022/03/30 04:38:34;;;;;;;22.17;8.82;;;;;;;0.33;100.00;99130.75;5073422;28;20021;-72
2022/03/30 04:41:00;;;;;;;23.20;9.35;;;;;;;0.41;100.00;99140.34;5073301;28;20025;-72
2022/03/30 04:43:27;;;;;;;29.48;10.13;;;;;;;0.42;100.00;99131.56;5073265;28;20040;-71
2022/03/30 04:45:54;;;;;;;24.58;9.63;;;;;;;0.46;100.00;99138.56;5073801;28;20385;-72
2022/03/30 04:48:19;;;;;;;23.60;9.95;;;;;;;0.47;100.00;99137.66;5073117;28;20446;-72
2022/03/30 04:50:45;;;;;;;31.80;8.70;;;;;;;0.51;100.00;99128.00;5073132;28;20543;-72
2022/03/30 04:53:10;;;;;;;27.13;8.10;;;;;;;0.54;100.00;99126.22;5072998;28;20116;-72
2022/03/30 04:55:36;;;;;;;20.92;9.13;;;;;;;0.57;100.00;99119.22;5072941;28;20055;-72
2022/03/30 04:58:02;;;;;;;21.63;9.27;;;;;;;0.58;100.00;99115.69;5073045;28;20032;-73
2022/03/30 05:00:28;;;;;;;22.65;9.85;;;;;;;0.59;100.00;99112.19;5073003;28;20103;-72
2022/03/30 05:02:53;;;;;;;27.80;11.30;;;;;;;0.59;100.00;99113.06;5073249;28;20074;-73
2022/03/30 05:05:18;;;;;;;26.20;10.55;;;;;;;0.59;100.00;99107.81;5072852;28;20020;-72
2022/03/30 05:07:43;;;;;;;25.40;10.55;;;;;;;0.52;100.00;99111.34;5072996;28;20086;-73
2022/03/30 05:10:11;;;;;;;26.50;10.63;;;;;;;0.53;100.00;99103.47;5071614;28;20060;-73
2022/03/30 05:12:36;;;;;;;29.73;10.40;;;;;;;0.58;100.00;99116.56;5072939;28;20471;-72
2022/03/30 05:15:01;;;;;;;23.70;10.60;;;;;;;0.59;100.00;99109.56;5072775;28;20072;-72
2022/03/30 05:17:27;;;;;;;28.65;10.30;;;;;;;0.58;100.00;99110.44;5072832;28;20031;-73
2022/03/30 05:19:52;;;;;;;24.85;9.63;;;;;;;0.58;100.00;99116.56;5072685;28;20024;-72
2022/03/30 05:22:17;;;;;;;22.48;8.95;;;;;;;0.61;100.00;99115.66;5072961;28;20503;-71
2022/03/30 05:24:43;;;;;;;24.67;9.23;;;;;;;0.58;100.00;99106.06;5073190;28;20028;-72
2022/03/30 05:27:09;;;;;;;19.73;9.27;;;;;;;0.57;100.00;99106.09;5072696;28;20021;-72
2022/03/30 05:29:36;;;;;;;27.88;9.25;;;;;;;0.58;100.00;99106.06;5072889;28;20025;-72
2022/03/30 05:32:01;;;;;;;26.45;10.23;;;;;;;0.60;100.00;99103.41;5071350;28;20546;-72
2022/03/30 05:34:27;;;;;;;23.42;9.38;;;;;;;0.61;100.00;99097.28;5071139;28;20060;-71
2022/03/30 05:36:52;;;;;;;28.83;10.30;;;;;;;0.62;100.00;99096.41;5072915;28;20025;-72
2022/03/30 05:39:17;;;;;;;26.65;8.82;;;;;;;0.64;100.00;99099.88;5072573;28;20017;-72
2022/03/30 05:41:43;;;;;;;25.35;10.32;;;;;;;0.62;100.00;99101.66;5071319;28;20039;-72
2022/03/30 05:44:08;;;;;;;22.10;8.85;;;;;;;0.63;100.00;99103.38;5072571;28;20047;-72
2022/03/30 05:46:36;;;;;;;30.25;8.45;;;;;;;0.70;100.00;99102.44;5072546;28;20048;-72
2022/03/30 05:49:02;;;;;;;20.30;9.32;;;;;;;0.76;100.00;99098.91;5075033;28;20032;-73
2022/03/30 05:51:27;;;;;;;29.33;9.75;;;;;;;0.78;100.00;99105.88;5076149;28;20055;-72
2022/03/30 05:53:53;;;;;;;23.63;9.88;;;;;;;0.78;100.00;99105.88;5076255;28;20473;-72
2022/03/30 05:56:18;;;;;;;21.13;9.60;;;;;;;0.71;100.00;99112.09;5076214;28;20056;-73
2022/03/30 05:58:43;;;;;;;22.92;9.40;;;;;;;0.71;100.00;99106.81;5076271;28;20017;-72
2022/03/30 06:01:09;;;;;;;22.88;9.15;;;;;;;0.74;100.00;99116.44;5076136;28;20024;-72
2022/03/30 06:03:37;;;;;;;22.08;9.27;;;;;;;0.81;100.00;99115.50;5076000;28;20028;-72
2022/03/30 06:06:04;;;;;;;24.05;10.27;;;;;;;0.70;100.00;99120.84;5075994;28;20035;-72
2022/03/30 06:08:31;;;;;;;27.95;11.43;;;;;;;0.42;100.00;99128.94;5075858;28;20024;-72
2022/03/30 06:10:56;;;;;;;27.85;11.45;;;;;;;0.20;100.00;99122.09;5074522;28;20035;-72
2022/03/30 06:13:21;;;;;;;26.98;11.75;;;;;;;0.07;100.00;99128.28;5076135;28;20107;-72
2022/03/30 06:15:47;;;;;;;28.80;11.98;;;;;;;0.04;100.00;99123.94;5075723;28;20025;-73
2022/03/30 06:18:14;;;;;;;29.08;12.63;;;;;;;-0.01;100.00;99131.84;5075822;28;20052;-74
2022/03/30 06:20:40;;;;;;;29.40;12.68;;;;;;;-0.03;100.00;99130.09;5075748;28;20481;-73
2022/03/30 06:23:05;;;;;;;29.65;13.02;;;;;;;0.03;100.00;99135.28;5075736;28;20062;-73
2022/03/30 06:25:31;;;;;;;37.83;13.18;;;;;;;0.15;100.00;99133.50;5074414;28;20031;-73
2022/03/30 06:27:58;;;;;;;37.13;13.98;;;;;;;0.19;100.00;99129.97;5074494;28;20116;-73
2022/03/30 06:30:24;;;;;;;25.08;11.88;;;;;;;0.30;100.00;99120.28;5075561;28;20027;-73
2022/03/30 06:32:51;;;;;;;25.45;10.32;;;;;;;0.41;100.00;99119.31;5075925;28;20024;-73
2022/03/30 06:35:20;;;;;;;25.05;9.30;;;;;;;0.50;100.00;99119.25;5075485;28;20081;-73
2022/03/30 06:37:46;;;;;;;19.77;8.85;;;;;;;0.64;100.00;99126.16;5075473;28;20241;-72
2022/03/30 06:40:14;;;;;;;17.30;8.20;;;;;;;0.72;100.00;99116.44;5075436;28;20021;-73
2022/03/30 06:42:41;;;;;;;18.38;7.60;;;;;;;0.86;100.00;99115.44;5075323;28;20055;-73
2022/03/30 06:45:08;;;;;;;13.75;6.38;;;;;;;0.96;100.00;99111.84;5075308;28;20029;-73
2022/03/30 06:47:33;;;;;;;17.02;6.90;;;;;;;1.04;100.00;99109.16;5074072;28;20040;-73
2022/03/30 06:49:59;;;;;;;21.75;7.18;;;;;;;1.17;100.00;99109.03;5075218;28;20064;-73
2022/03/30 06:52:24;;;;;;;14.55;6.53;;;;;;;1.22;100.00;99108.09;5073861;28;20036;-72
2022/03/30 06:54:49;;;;;;;16.92;6.43;;;;;;;1.33;100.00;99102.72;5075057;28;20016;-73
2022/03/30 06:57:15;;;;;;;21.02;6.28;;;;;;;1.42;100.00;99112.25;5075106;28;20052;-73
2022/03/30 06:59:40;;;;;;;14.98;6.03;;;;;;;1.57;100.00;99107.72;5074900;28;20017;-73
2022/03/30 07:02:06;;;;;;;21.38;6.10;;;;;;;1.65;100.00;99105.84;5075033;28;20108;-73
2022/03/30 07:04:31;;;;;;;15.68;5.00;;;;;;;1.75;100.00;99108.38;5074954;28;20485;-73
2022/03/30 07:12:24;;;;;;;14.57;5.03;;;;;;;1.99;100.00;99114.19;5075269;28;20285;-73
2022/03/30 07:14:50;;;;;;;15.10;4.85;;;;;;;2.05;100.00;99114.13;5074705;28;20473;-73
2022/03/30 07:17:15;;;;;;;11.23;5.38;;;;;;;2.11;100.00;99116.66;5074750;28;20024;-73
2022/03/30 07:19:40;;;;;;;16.98;5.25;;;;;;;2.15;100.00;99113.97;5074938;28;20027;-73
2022/03/30 07:22:07;;;;;;;12.10;5.43;;;;;;;2.20;100.00;99113.03;5074652;28;20033;-73
2022/03/30 07:24:32;;;;;;;11.57;5.55;;;;;;;2.35;100.00;99111.03;5074497;28;20401;-73
2022/03/30 07:26:58;;;;;;;13.35;5.53;;;;;;;2.38;100.00;99107.50;5074457;28;20020;-73
2022/03/30 07:29:23;;;;;;;15.25;6.43;;;;;;;2.42;100.00;99107.41;5074493;28;20055;-73
2022/03/30 07:31:48;;;;;;;16.77;5.53;;;;;;;2.43;100.00;99108.28;5074424;28;20020;-73
2022/03/30 07:34:14;;;;;;;13.95;5.10;;;;;;;2.55;100.00;99113.38;5074558;28;20024;-73
2022/03/30 07:36:40;;;;;;;15.18;6.35;;;;;;;2.56;100.00;99111.59;5074315;28;20020;-73
2022/03/30 07:39:05;;;;;;;15.60;5.78;;;;;;;2.62;100.00;99108.00;5074294;28;20016;-73
2022/03/30 07:41:31;;;;;;;14.95;6.45;;;;;;;2.62;100.00;99108.00;5074225;28;20035;-73
2022/03/30 07:43:56;;;;;;;13.95;5.93;;;;;;;2.71;100.00;99091.16;5074108;28;20504;-72
2022/03/30 07:46:21;;;;;;;22.42;6.78;;;;;;;2.79;100.00;99094.53;5074120;28;20428;-72
2022/03/30 07:48:47;;;;;;;13.98;6.13;;;;;;;2.82;100.00;99088.34;5074203;28;20033;-73
2022/03/30 07:51:12;;;;;;;15.40;6.22;;;;;;;2.86;100.00;99090.88;5073939;28;20556;-73
2022/03/30 07:53:38;;;;;;;19.02;5.80;;;;;;;2.96;100.00;99085.47;5074239;28;20099;-73
2022/03/30 07:56:03;;;;;;;13.48;4.97;;;;;;;3.12;100.00;99091.31;5074280;28;20470;-73
2022/03/30 07:58:29;;;;;;;15.50;5.85;;;;;;;3.17;100.00;99089.47;5073953;28;20089;-73
2022/03/30 08:00:54;;;;;;;18.35;6.38;;;;;;;3.27;100.00;99084.03;5072680;28;20028;-73
2022/03/30 08:03:19;;;;;;;14.98;5.15;;;;;;;3.31;100.00;99086.56;5073830;28;20499;-73
2022/03/30 08:05:45;;;;;;;22.40;5.55;;;;;;;3.53;100.00;99087.91;5072429;28;20553;-73
2022/03/30 08:08:10;;;;;;;11.15;5.10;;;;;;;3.52;100.00;99083.53;5072437;28;20031;-73
2022/03/30 08:10:37;;;;;;;16.25;3.95;;;;;;;3.58;100.00;99084.25;5071692;28;20020;-73
2022/03/30 08:13:03;;;;;;;13.43;3.20;;;;;;;3.75;100.00;99090.97;5073642;28;20477;-73
2022/03/30 08:15:29;;;;;;;9.80;2.80;;;;;;;3.89;100.00;99088.03;5073565;28;20069;-73
2022/03/30 08:17:55;;;;;;;14.63;3.22;;;;;;;4.04;100.00;99090.38;5073776;28;20028;-73
2022/03/30 08:23:07;;;;;;;11.85;2.65;;;;;;;4.28;96.68;99096.00;5073589;28;20032;-73
2022/03/30 08:25:33;;;;;;;11.68;2.70;;;;;;;4.17;92.91;99090.97;5073557;28;20052;-73
2022/03/30 08:27:58;;;;;;;15.95;3.22;;;;;;;4.14;94.76;99099.84;5073493;28;20427;-73
2022/03/30 08:30:24;;;;;;;11.32;3.42;;;;;;;4.34;95.86;99094.09;5072084;28;20111;-73
2022/03/30 08:32:49;;;;;;;10.05;3.17;;;;;;;4.56;94.70;99096.19;5073622;28;20038;-73
2022/03/30 08:35:15;;;;;;;12.40;3.38;;;;;;;4.56;90.58;99090.91;5072057;28;20055;-73
2022/03/30 08:37:40;;;;;;;9.48;2.90;;;;;;;4.64;89.80;99095.16;5073261;28;20024;-73
2022/03/30 08:40:07;;;;;;;8.75;2.45;;;;;;;4.87;91.66;99097.19;5073338;28;20063;-73
2022/03/30 08:42:34;;;;;;;10.73;2.42;;;;;;;4.84;87.19;99096.44;5072006;28;20032;-73
2022/03/30 08:45:02;;;;;;;9.20;2.17;;;;;;;5.03;87.05;99091.50;5073197;28;20032;-73
2022/03/30 08:47:28;;;;;;;9.73;2.20;;;;;;;5.29;85.99;99094.34;5073237;28;20025;-73
2022/03/30 08:49:53;;;;;;;8.70;2.78;;;;;;;5.39;84.26;99098.50;5073137;28;20024;-73
2022/03/30 08:52:19;;;;;;;9.45;2.40;;;;;;;5.39;84.32;99093.19;5117510;22;20054;-83
2022/03/30 08:54:45;;;;;;;7.18;2.50;;;;;;;5.47;87.76;99092.97;5077388;28;20024;-83
2022/03/30 08:57:11;;;;;;;9.50;2.78;;;;;;;5.76;85.97;99095.72;5076633;28;20083;-83
2022/03/30 08:59:37;;;;;;;8.50;2.33;;;;;;;5.78;83.95;99091.22;5077711;28;20028;-84
2022/03/30 09:02:03;;;;;;;11.95;2.80;;;;;;;5.93;84.15;99098.72;5077848;28;20023;-84
2022/03/30 09:04:31;;;;;;;6.55;2.10;;;;;;;5.77;80.04;99087.69;5078219;28;20029;-83
2022/03/30 09:07:01;;;;;;;9.88;3.08;;;;;;;5.86;84.23;99086.56;5080505;28;20051;-83
2022/03/30 09:09:46;;;;;;;10.38;2.80;;;;;;;5.99;81.10;99088.84;5078484;28;20398;-83
2022/03/30 09:12:28;;;;;;;13.07;3.80;;;;;;;6.26;81.91;99087.16;5039797;28;20044;-83
2022/03/30 09:15:08;;;;;;;10.05;4.10;;;;;;;6.69;82.28;99080.50;5081414;28;20039;-84
2022/03/30 09:17:55;;;;;;;9.95;4.40;;;;;;;6.73;75.29;99084.78;5081459;28;20024;-83
2022/03/30 09:20:31;;;;;;;12.57;5.50;;;;;;;6.42;77.67;99080.47;5079967;28;20072;-84
2022/03/30 09:23:14;;;;;;;12.80;5.70;;;;;;;6.58;76.57;99073.78;5083193;28;20490;-84
2022/03/30 09:26:00;;;;;;;13.43;5.55;;;;;;;6.61;77.52;99072.81;5079354;28;20020;-82
2022/03/30 09:28:35;;;;;;;7.72;3.08;;;;;;;6.57;70.12;99079.97;5077178;28;20033;-83
2022/03/30 09:31:11;;;;;;;8.52;3.17;;;;;;;7.00;73.17;99067.97;5081502;28;20021;-83
2022/03/30 09:34:03;;;;;;;;;;;;;;;;;;;;;
2022/03/30 09:37:28;;;;;;;12.18;3.10;;;;;;;7.60;69.31;99072.91;5082922;28;20449;-82
2022/03/30 09:39:36;;;;;;;9.13;2.83;;;;;;;7.35;69.12;99060.53;5068542;28;20024;-84
2022/03/30 09:42:25;;;;;;;;;;;;;;;;;;;;;
2022/03/30 09:45:03;;;;;;;8.57;3.05;;;;;;;7.38;65.27;99059.56;5085078;28;20116;-84
2022/03/30 09:47:43;;;;;;;11.13;3.63;;;;;;;7.86;67.33;99051.56;5085221;28;20024;-84
2022/03/30 09:50:14;;;;;;;10.10;3.58;;;;;;;8.09;65.98;99052.47;5083282;28;20086;-84
2022/03/30 09:52:48;;;;;;;9.60;3.40;;;;;;;8.58;66.23;99054.09;5085060;28;20028;-83
2022/03/30 09:55:29;;;;;;;11.00;3.70;;;;;;;8.58;67.64;99054.09;5089031;28;20107;-84
2022/03/30 09:58:25;;;;;;;11.05;3.25;;;;;;;8.68;66.29;99059.03;5088977;28;20046;-84
2022/03/30 10:01:21;;;;;;;11.65;3.95;;;;;;;8.64;67.24;99046.78;5084547;28;20107;-84
2022/03/30 10:04:24;;;;;;;7.57;3.25;;;;;;;9.19;64.95;99052.44;5077012;28;20112;-83
2022/03/30 10:06:59;;;;;;;8.57;3.30;;;;;;;9.04;63.87;99045.09;5079248;28;20355;-84
2022/03/30 10:09:30;;;;;;;8.93;3.58;;;;;;;9.35;64.87;99039.31;5080413;28;20032;-84
2022/03/30 10:12:12;;;;;;;;;;;;;;;;;;;;;
2022/03/30 10:14:49;;;;;;;8.45;3.20;;;;;;;9.13;60.04;99048.25;5085974;28;20080;-83
2022/03/30 10:17:22;;;;;;;8.63;3.25;;;;;;;8.93;62.63;99037.56;5085010;28;20021;-85
2022/03/30 10:20:01;;;;;;;9.23;3.03;;;;;;;9.07;62.22;99045.88;5083946;28;20477;-84
2022/03/30 10:22:53;;;;;;;7.70;2.55;;;;;;;9.44;60.67;99044.22;5084340;28;20051;-84
2022/03/30 10:25:56;;;;;;;6.75;2.50;;;;;;;9.14;59.26;99042.88;5084659;28;20445;-84
2022/03/30 10:28:43;;;;;;;6.40;2.78;;;;;;;9.82;60.27;99030.03;5085476;28;20123;-84
2022/03/30 10:31:17;;;;;;;5.55;2.30;;;;;;;9.81;60.01;99035.47;5084056;28;20107;-83
2022/03/30 10:33:54;;;;;;;8.48;3.03;;;;;;;9.39;58.03;99035.56;5083139;28;20033;-84
2022/03/30 10:36:30;;;;;;;6.55;2.50;;;;;;;8.83;59.22;99026.44;5087142;28;20028;-83
2022/03/30 10:39:24;;;;;;;9.63;2.50;;;;;;;8.98;59.46;99029.38;5076407;28;20508;-82
2022/03/30 10:42:04;;;;;;;;;;;;;;;9.71;59.86;99027.03;5080032;28;20111;-83
2022/03/30 10:44:59;;;;;;;7.40;2.35;;;;;;;9.08;59.48;99021.81;5078297;28;20006;-84
2022/03/30 10:47:30;;;;;;;9.35;3.10;;;;;;;9.68;62.11;99014.72;5078998;28;20036;-83
2022/03/30 10:50:08;;;;;;;6.07;2.80;;;;;;;9.43;58.69;99023.81;5083200;28;20032;-83
2022/03/30 10:52:49;;;;;;;7.15;2.53;;;;;;;10.23;62.49;99016.59;5081329;28;20031;-83
2022/03/30 10:55:33;;;;;;;12.18;3.05;;;;;;;10.69;60.57;99012.59;5082754;28;20112;-83
2022/03/30 10:58:15;;;;;;;8.27;3.15;;;;;;;11.16;57.28;99013.72;5084422;28;20082;-83
2022/03/30 11:01:19;;;;;;;6.75;3.03;;;;;;;9.86;56.72;99008.56;5083734;28;20039;-84
2022/03/30 11:04:02;;;;;;;8.35;2.95;;;;;;;10.43;56.33;99004.06;5085346;28;20051;-83
2022/03/30 11:06:39;;;;;;;11.33;3.10;;;;;;;11.31;58.84;99002.31;5086298;28;20470;-84
2022/03/30 11:09:25;;;;;;;9.43;3.25;;;;;;;9.82;58.25;98997.19;5087392;28;20031;-84
2022/03/30 11:12:19;;;;;;;8.50;3.13;;;;;;;9.35;58.19;98994.03;5087340;28;20508;-83
2022/03/30 11:15:11;;;;;;;8.48;3.03;;;;;;;10.30;58.90;98990.47;5077416;28;20540;-83
2022/03/30 11:17:40;;;;;;;6.30;3.10;;;;;;;10.25;58.17;98990.72;4981862;28;20030;-83
2022/03/30 11:20:28;;;;;;;9.23;3.50;;;;;;;10.43;56.66;98985.38;5074898;28;20059;-84
2022/03/30 11:23:20;;;;;;;8.35;3.50;;;;;;;10.06;59.25;98980.94;5082636;28;20028;-84
2022/03/30 11:25:57;;;;;;;9.75;3.67;;;;;;;10.27;58.94;98986.16;5067925;28;20037;-84
2022/03/30 11:28:40;;;;;;;11.10;3.88;;;;;;;10.71;61.10;98973.34;5083470;28;20028;-84
2022/03/30 11:31:30;;;;;;;9.30;3.50;;;;;;;11.03;56.39;98972.59;5085749;28;20062;-83
2022/03/30 11:34:31;;;;;;;;;;;;;;;;;;;;;
2022/03/30 11:37:03;;;;;;;10.13;3.95;;;;;;;10.98;57.67;98967.47;5086152;28;20087;-84
2022/03/30 11:39:53;;;;;;;7.32;3.45;;;;;;;11.43;58.16;98969.56;5085284;28;20055;-84
2022/03/30 11:42:58;;;;;;;8.75;3.90;;;;;;;11.20;54.79;98977.03;5084822;28;20078;-84
2022/03/30 11:45:33;;;;;;;9.63;3.60;;;;;;;10.49;59.83;98966.38;5070715;28;20033;-83
2022/03/30 11:48:36;;;;;;;9.95;3.50;;;;;;;10.09;59.37;98974.59;5085390;28;20061;-84
2022/03/30 11:51:05;;;;;;;8.27;3.55;;;;;;;10.71;59.36;98973.34;5074454;28;20101;-83